createdAt,value
2019-05-02T00:04:07.595Z,11.17
2019-05-02T00:08:15.817Z,11.40
2019-05-02T00:12:24.102Z,11.17
2019-05-02T00:16:34.207Z,11.73
2019-05-02T00:20:42.516Z,11.70
2019-05-02T00:24:50.333Z,10.90
2019-05-02T00:28:58.643Z,12.03
2019-05-02T00:33:06.441Z,12.30
2019-05-02T00:37:18.756Z,12.33
2019-05-02T00:41:24.236Z,11.23
2019-05-02T00:45:32.321Z,11.27
2019-05-02T00:49:40.330Z,13.47
2019-05-02T00:53:49.519Z,10.80
2019-05-02T00:57:57.425Z,12.93
2019-05-02T01:02:21.011Z,12.10
2019-05-02T01:06:28.893Z,12.30
2019-05-02T01:10:36.820Z,12.30
2019-05-02T01:14:44.733Z,12.77
2019-05-02T01:18:52.354Z,12.60
2019-05-02T01:23:00.454Z,13.30
2019-05-02T01:27:23.658Z,12.67
2019-05-02T01:31:37.608Z,12.30
2019-05-02T01:35:51.536Z,13.10
2019-05-02T01:39:59.847Z,13.00
2019-05-02T01:44:07.769Z,13.10
2019-05-02T01:48:15.974Z,12.50
2019-05-02T01:52:24.948Z,13.50
2019-05-02T01:56:34.856Z,14.13
2019-05-02T02:00:44.810Z,13.43
2019-05-02T02:04:56.820Z,13.17
2019-05-02T02:09:08.209Z,12.20
2019-05-02T02:13:15.533Z,12.73
2019-05-02T02:17:23.339Z,12.20
2019-05-02T02:21:57.456Z,12.90
2019-05-02T02:26:06.837Z,11.67
2019-05-02T02:30:17.656Z,11.67
2019-05-02T02:34:29.237Z,12.30
2019-05-02T02:38:35.581Z,11.57
2019-05-02T02:42:43.795Z,10.10
2019-05-02T02:46:52.302Z,10.73
2019-05-02T02:51:00.005Z,9.47
2019-05-02T02:55:08.754Z,9.50
2019-05-02T02:59:19.583Z,9.93
2019-05-02T03:03:30.097Z,9.17
2019-05-02T03:07:37.512Z,9.80
2019-05-02T03:12:07.311Z,9.37
2019-05-02T03:16:18.781Z,8.63
2019-05-02T03:20:27.053Z,9.13
2019-05-02T03:24:36.662Z,9.67
2019-05-02T03:28:44.924Z,9.23
2019-05-02T03:33:05.856Z,8.90
2019-05-02T03:37:10.489Z,7.80
2019-05-02T03:41:20.023Z,8.23
2019-05-02T03:45:23.030Z,7.77
2019-05-02T03:49:31.410Z,8.37
2019-05-02T03:53:39.976Z,7.97
2019-05-02T03:57:47.800Z,7.47
2019-05-02T04:01:55.799Z,7.13
2019-05-02T04:06:04.224Z,7.50
2019-05-02T04:10:13.343Z,8.27
2019-05-02T04:14:36.915Z,8.43
2019-05-02T04:18:31.534Z,8.17
2019-05-02T04:22:42.882Z,8.57
2019-05-02T04:26:54.016Z,8.40
2019-05-02T04:30:59.581Z,7.87
2019-05-02T04:35:07.498Z,8.10
2019-05-02T04:39:17.613Z,8.00
2019-05-02T04:43:28.603Z,8.67
2019-05-02T04:47:34.744Z,7.40
2019-05-02T04:51:50.827Z,7.07
2019-05-02T04:56:01.901Z,7.37
2019-05-02T05:00:08.522Z,7.53
2019-05-02T05:04:12.612Z,7.53
2019-05-02T05:08:26.429Z,7.93
2019-05-02T05:12:32.491Z,8.00
2019-05-02T05:16:40.047Z,7.07
2019-05-02T05:20:52.986Z,6.43
2019-05-02T05:25:07.442Z,7.93
2019-05-02T05:29:19.386Z,7.30
2019-05-02T05:33:25.187Z,7.83
2019-05-02T05:37:33.000Z,7.27
2019-05-02T05:41:42.616Z,7.80
2019-05-02T05:45:56.608Z,7.73
2019-05-02T05:50:01.179Z,7.40
2019-05-02T05:54:09.468Z,7.80
2019-05-02T05:58:18.763Z,7.40
2019-05-02T06:02:28.391Z,7.57
2019-05-02T06:06:37.783Z,8.57
2019-05-02T06:10:45.420Z,7.83
2019-05-02T06:14:56.213Z,8.27
2019-05-02T06:19:03.553Z,8.30
2019-05-02T06:23:11.104Z,10.23
2019-05-02T06:27:20.958Z,9.10
2019-05-02T06:31:28.871Z,9.23
2019-05-02T06:35:36.987Z,10.10
2019-05-02T06:39:44.807Z,9.40
2019-05-02T06:43:53.122Z,9.07
2019-05-02T06:48:01.547Z,8.57
2019-05-02T06:52:10.048Z,8.57
2019-05-02T06:56:17.718Z,7.23
2019-05-02T07:00:35.390Z,7.30
2019-05-02T07:04:35.630Z,8.17
2019-05-02T07:08:43.259Z,7.00
2019-05-02T07:13:02.261Z,6.47
2019-05-02T07:17:31.432Z,5.63
2019-05-02T07:21:35.966Z,6.20
2019-05-02T07:25:45.316Z,5.50
2019-05-02T07:29:57.655Z,3.93
2019-05-02T07:34:02.808Z,4.23
2019-05-02T07:38:10.722Z,3.77
2019-05-02T07:42:18.531Z,2.90
2019-05-02T07:46:26.039Z,3.70
2019-05-02T07:50:34.755Z,3.03
2019-05-02T07:54:42.455Z,4.33
2019-05-02T07:58:50.673Z,3.83
2019-05-02T08:02:59.439Z,4.40
2019-05-02T08:07:07.508Z,3.43
2019-05-02T08:11:17.173Z,4.20
2019-05-02T08:15:25.313Z,4.40
2019-05-02T08:19:37.607Z,4.37
2019-05-02T08:23:42.740Z,4.30
2019-05-02T08:27:59.250Z,5.10
2019-05-02T08:32:07.482Z,4.47
2019-05-02T08:36:16.002Z,5.33
2019-05-02T08:40:23.718Z,4.93
2019-05-02T08:44:31.938Z,5.30
2019-05-02T08:48:41.842Z,5.80
2019-05-02T08:52:49.502Z,5.60
2019-05-02T08:56:58.969Z,4.73
2019-05-02T09:01:09.253Z,4.70
2019-05-02T09:05:17.275Z,5.10
2019-05-02T09:09:28.107Z,3.90
2019-05-02T09:13:35.307Z,3.33
2019-05-02T09:17:51.762Z,3.60
2019-05-02T09:21:53.164Z,2.67
2019-05-02T09:26:02.560Z,2.77
2019-05-02T09:30:17.174Z,2.70
2019-05-02T09:34:26.728Z,2.50
2019-05-02T09:38:32.935Z,2.00
2019-05-02T09:42:42.799Z,1.87
2019-05-02T09:46:55.292Z,2.43
2019-05-02T09:51:04.494Z,2.93
2019-05-02T09:55:11.994Z,1.47
2019-05-02T09:59:27.758Z,1.70
2019-05-02T10:03:32.174Z,1.70
2019-05-02T10:07:41.914Z,2.00
2019-05-02T10:11:49.837Z,1.50
2019-05-02T10:15:57.543Z,1.63
2019-05-02T10:20:06.920Z,1.70
2019-05-02T10:24:14.705Z,1.60
2019-05-02T10:28:23.050Z,1.60
2019-05-02T10:32:32.467Z,1.60
2019-05-02T10:36:43.334Z,1.80
2019-05-02T10:40:54.610Z,3.47
2019-05-02T10:45:02.560Z,2.40
2019-05-02T10:49:31.947Z,1.47
2019-05-02T10:53:39.990Z,1.70
2019-05-02T10:57:48.898Z,1.57
2019-05-02T11:02:24.743Z,1.77
2019-05-02T11:06:37.175Z,2.75
2019-05-02T11:10:43.282Z,2.45
2019-05-02T11:15:02.299Z,1.87
2019-05-02T11:19:29.349Z,1.95
2019-05-02T11:23:37.278Z,2.20
2019-05-02T11:27:45.254Z,1.57
2019-05-02T11:31:53.046Z,2.80
2019-05-02T11:36:02.496Z,1.60
2019-05-02T11:40:12.880Z,1.87
2019-05-02T11:44:22.642Z,1.72
2019-05-02T11:48:32.043Z,2.45
2019-05-02T11:52:40.078Z,2.55
2019-05-02T11:56:49.183Z,7.12
2019-05-02T12:00:57.736Z,3.37
2019-05-02T12:05:08.443Z,3.20
2019-05-02T12:09:17.443Z,3.17
2019-05-02T12:13:25.906Z,3.43
2019-05-02T12:17:33.705Z,3.45
2019-05-02T12:21:43.390Z,3.20
2019-05-02T12:25:52.027Z,2.83
2019-05-02T12:30:00.108Z,3.80
2019-05-02T12:34:08.005Z,3.90
2019-05-02T12:38:16.133Z,3.93
2019-05-02T12:42:24.276Z,4.27
2019-05-02T12:46:35.659Z,4.33
2019-05-02T12:50:43.478Z,5.27
2019-05-02T12:54:52.541Z,5.93
2019-05-02T12:59:02.410Z,5.87
2019-05-02T13:03:16.554Z,5.70
2019-05-02T13:07:24.435Z,6.70
2019-05-02T13:11:56.704Z,7.10
2019-05-02T13:16:04.901Z,5.93
2019-05-02T13:20:14.617Z,6.43
2019-05-02T13:24:29.496Z,6.13
2019-05-02T13:28:36.544Z,6.83
2019-05-02T13:32:52.309Z,7.07
2019-05-02T13:36:58.106Z,7.63
2019-05-02T13:41:05.955Z,7.60
2019-05-02T13:45:22.885Z,7.77
2019-05-02T13:49:32.400Z,6.57
2019-05-02T13:53:54.228Z,7.13
2019-05-02T13:58:02.408Z,7.07
2019-05-02T14:02:31.792Z,4.50
2019-05-02T14:06:42.117Z,4.87
2019-05-02T14:10:53.189Z,3.87
2019-05-02T14:15:03.052Z,4.30
2019-05-02T14:19:12.443Z,4.80
2019-05-02T14:23:22.162Z,4.70
2019-05-02T14:27:32.050Z,5.47
2019-05-02T14:31:39.876Z,5.87
2019-05-02T14:35:48.192Z,5.30
2019-05-02T14:40:02.985Z,4.63
2019-05-02T14:44:11.986Z,5.47
2019-05-02T14:48:24.171Z,5.40
2019-05-02T14:52:32.675Z,4.37
2019-05-02T14:56:49.377Z,4.00
2019-05-02T15:00:57.754Z,4.10
2019-05-02T15:05:05.816Z,5.27
2019-05-02T15:09:16.681Z,4.60
2019-05-02T15:13:24.378Z,5.90
2019-05-02T15:17:37.710Z,5.00
2019-05-02T15:21:46.932Z,5.27
2019-05-02T15:25:55.956Z,4.63
2019-05-02T15:30:06.899Z,6.07
2019-05-02T15:34:22.726Z,5.07
2019-05-02T15:38:32.392Z,4.97
2019-05-02T15:42:42.140Z,5.13
2019-05-02T15:46:52.315Z,5.80
2019-05-02T15:51:06.115Z,5.80
2019-05-02T15:55:11.598Z,5.73
2019-05-02T15:59:22.323Z,6.47
2019-05-02T16:03:45.802Z,6.87
2019-05-02T16:07:55.859Z,7.20
2019-05-02T16:12:03.100Z,7.17
2019-05-02T16:16:13.163Z,7.37
2019-05-02T16:20:32.349Z,8.67
2019-05-02T16:24:44.029Z,13.60
2019-05-02T16:28:51.599Z,8.37
2019-05-02T16:33:02.756Z,12.53
2019-05-02T16:37:16.383Z,5.43
2019-05-02T16:41:22.337Z,6.30
2019-05-02T16:45:30.447Z,7.20
2019-05-02T16:49:38.769Z,7.80
2019-05-02T16:53:47.097Z,9.80
2019-05-02T16:57:56.585Z,12.07
2019-05-02T17:02:08.015Z,11.20
2019-05-02T17:06:16.910Z,12.67
2019-05-02T17:10:47.476Z,8.83
2019-05-02T17:15:14.105Z,6.30
2019-05-02T17:19:26.118Z,5.10
2019-05-02T17:23:32.963Z,5.83
2019-05-02T17:27:42.295Z,4.77
2019-05-02T17:31:55.424Z,4.33
2019-05-02T17:36:03.153Z,4.27
2019-05-02T17:40:16.793Z,4.07
2019-05-02T17:44:25.429Z,4.77
2019-05-02T17:48:34.787Z,4.87
2019-05-02T17:52:47.946Z,9.77
2019-05-02T17:56:57.490Z,7.07
2019-05-02T18:01:09.629Z,7.37
2019-05-02T18:05:17.812Z,6.43
2019-05-02T18:09:26.227Z,7.40
2019-05-02T18:13:35.792Z,8.90
2019-05-02T18:17:43.465Z,6.10
2019-05-02T18:21:52.570Z,7.57
2019-05-02T18:26:04.551Z,7.30
2019-05-02T18:30:12.856Z,7.17
2019-05-02T18:34:25.161Z,6.97
2019-05-02T18:38:32.528Z,7.43
2019-05-02T18:42:42.424Z,7.80
2019-05-02T18:46:51.938Z,8.50
2019-05-02T18:51:01.575Z,10.33
2019-05-02T18:55:09.507Z,9.20
2019-05-02T18:59:19.817Z,10.30
2019-05-02T19:03:27.479Z,7.70
2019-05-02T19:07:35.927Z,10.90
2019-05-02T19:11:44.128Z,10.53
2019-05-02T19:15:53.462Z,9.60
2019-05-02T19:20:01.502Z,9.27
2019-05-02T19:24:09.902Z,8.57
2019-05-02T19:28:20.317Z,8.57
2019-05-02T19:32:28.445Z,11.17
2019-05-02T19:36:36.809Z,10.37
2019-05-02T19:40:44.636Z,9.37
2019-05-02T19:44:52.858Z,9.43
2019-05-02T19:49:02.101Z,8.87
2019-05-02T19:53:18.112Z,9.47
2019-05-02T19:57:22.722Z,12.37
2019-05-02T20:01:29.904Z,14.50
2019-05-02T20:05:37.940Z,22.03
2019-05-02T20:09:47.341Z,19.23
2019-05-02T20:14:00.640Z,14.60
2019-05-02T20:18:05.184Z,11.83
2019-05-02T20:22:18.165Z,11.87
2019-05-02T20:26:26.716Z,12.20
2019-05-02T20:30:34.734Z,11.03
2019-05-02T20:34:42.440Z,13.00
2019-05-02T20:38:52.531Z,10.90
2019-05-02T20:43:02.549Z,10.50
2019-05-02T20:47:15.200Z,10.93
2019-05-02T20:51:23.404Z,11.27
2019-05-02T20:55:32.261Z,11.63
2019-05-02T20:59:41.759Z,9.27
2019-05-02T21:03:52.071Z,10.00
2019-05-02T21:08:11.974Z,7.10
2019-05-02T21:12:20.357Z,6.53
2019-05-02T21:16:28.386Z,6.10
2019-05-02T21:20:36.757Z,6.07
2019-05-02T21:24:44.936Z,5.33
2019-05-02T21:28:54.267Z,5.77
2019-05-02T21:33:02.910Z,5.53
2019-05-02T21:37:12.985Z,5.67
2019-05-02T21:41:22.168Z,5.40
2019-05-02T21:45:31.638Z,5.20
2019-05-02T21:50:01.866Z,5.50
2019-05-02T21:54:40.984Z,5.67
2019-05-02T21:59:07.074Z,5.40
2019-05-02T22:03:15.893Z,4.77
2019-05-02T22:07:24.120Z,5.13
2019-05-02T22:11:32.092Z,4.93
2019-05-02T22:15:41.967Z,5.20
2019-05-02T22:19:49.422Z,5.20
2019-05-02T22:24:08.224Z,5.60
2019-05-02T22:28:07.283Z,4.70
2019-05-02T22:32:15.477Z,5.17
2019-05-02T22:36:23.397Z,5.27
2019-05-02T22:40:32.401Z,5.40
2019-05-02T22:44:41.713Z,4.70
2019-05-02T22:48:49.327Z,4.73
2019-05-02T22:52:57.602Z,4.80
2019-05-02T22:57:06.065Z,4.90
2019-05-02T23:01:14.454Z,4.80
2019-05-02T23:05:22.269Z,4.97
2019-05-02T23:09:30.390Z,6.07
2019-05-02T23:13:38.098Z,6.73
2019-05-02T23:17:46.627Z,8.57
2019-05-02T23:21:55.260Z,10.30
2019-05-02T23:26:19.630Z,10.33
2019-05-02T23:30:27.463Z,10.47
2019-05-02T23:34:35.155Z,10.17
2019-05-02T23:38:43.489Z,12.00
2019-05-02T23:42:52.486Z,12.47
2019-05-02T23:47:02.321Z,12.67
2019-05-02T23:51:12.016Z,12.93
2019-05-02T23:55:19.648Z,12.07
2019-05-02T23:59:27.355Z,9.83
